Ieper, Belgium
Current Conditions -  °F | °C
As of 2:55 PM on Monday 24 Nov 2014 (Local Time) from EBFN Reporting Station
Broken Clouds Broken Clouds  
Wind Chill: 50°   Ceiling: 25000
Heat Index: 50°   Visibility: 6mi
Dew Point: 39°   Wind: 6mph
Humidity: 66%   Direction: 360°N
Pressure: 30.3"   Gusts: NA
Location:  50.85°N, 2.89°E
Report Text: EBFN 241355Z 36005KT 9999 FEW022 BKN250 10/04 Q1026 BLU BLU
Loading
Personal Weather Stations






























Interactive Weather Map New forecast layout! Learn more

10-Day Weather Forecast

Advertisements
Track Severe Weather on mobile